createdAt,value
2022-08-11T00:00:51.159Z,3.57
2022-08-11T00:05:47.741Z,3.50
2022-08-11T00:10:40.596Z,4.10
2022-08-11T00:15:40.540Z,3.63
2022-08-11T00:20:34.260Z,4.47
2022-08-11T00:25:26.900Z,3.40
2022-08-11T00:30:19.435Z,3.63
2022-08-11T00:35:52.102Z,3.70
2022-08-11T00:40:34.628Z,3.70
2022-08-11T00:45:28.431Z,3.80
2022-08-11T00:50:26.031Z,3.83
2022-08-11T00:55:38.483Z,3.83
2022-08-11T01:00:34.740Z,4.10
2022-08-11T01:05:42.176Z,3.80
2022-08-11T01:10:53.302Z,3.97
2022-08-11T01:15:57.580Z,3.80
2022-08-11T01:21:07.768Z,3.90
2022-08-11T01:26:21.989Z,3.90
2022-08-11T01:31:35.941Z,4.07
2022-08-11T01:36:41.128Z,4.03
2022-08-11T01:42:14.249Z,3.80
2022-08-11T01:47:53.263Z,3.80
2022-08-11T01:53:01.751Z,4.50
2022-08-11T01:57:57.600Z,4.30
2022-08-11T02:02:54.821Z,4.00
2022-08-11T02:07:55.825Z,3.80
2022-08-11T02:12:52.560Z,4.70
2022-08-11T02:17:50.714Z,4.20
2022-08-11T02:23:11.342Z,4.00
2022-08-11T02:28:08.846Z,4.53
2022-08-11T02:33:25.531Z,3.90
2022-08-11T02:38:25.936Z,4.30
2022-08-11T02:43:28.326Z,4.73
2022-08-11T02:49:01.032Z,5.37
2022-08-11T02:53:58.749Z,5.70
2022-08-11T02:59:10.297Z,5.30
2022-08-11T03:04:06.733Z,6.07
2022-08-11T03:09:03.496Z,5.60
2022-08-11T03:14:21.004Z,5.60
2022-08-11T03:19:16.896Z,5.10
2022-08-11T03:24:13.777Z,5.20
2022-08-11T03:29:09.759Z,5.17
2022-08-11T03:34:07.002Z,5.40
2022-08-11T03:39:07.381Z,5.20
2022-08-11T03:44:07.782Z,5.67
2022-08-11T03:49:08.264Z,5.70
2022-08-11T03:54:06.818Z,4.50
2022-08-11T03:59:17.238Z,4.80
2022-08-11T04:04:33.645Z,5.30
2022-08-11T04:09:50.103Z,5.33
2022-08-11T04:15:10.082Z,5.17
2022-08-11T04:20:20.216Z,5.17
2022-08-11T04:25:25.845Z,5.53
2022-08-11T04:30:23.089Z,6.37
2022-08-11T04:35:33.884Z,6.50
2022-08-11T04:40:41.280Z,6.53
2022-08-11T04:45:41.543Z,6.50
2022-08-11T04:51:16.422Z,6.33
2022-08-11T04:56:29.950Z,6.47
2022-08-11T05:01:44.196Z,6.03
2022-08-11T05:06:58.227Z,6.67
2022-08-11T05:12:01.687Z,5.97
2022-08-11T05:17:15.506Z,6.47
2022-08-11T05:22:27.339Z,6.90
2022-08-11T05:27:38.302Z,5.70
2022-08-11T05:32:52.584Z,5.93
2022-08-11T05:38:04.805Z,6.20
2022-08-11T05:43:16.322Z,6.53
2022-08-11T05:48:27.820Z,6.10
2022-08-11T05:53:45.840Z,5.80
2022-08-11T05:58:42.777Z,6.53
2022-08-11T06:03:58.613Z,6.10
2022-08-11T06:08:54.464Z,6.03
2022-08-11T06:13:47.823Z,5.70
2022-08-11T06:18:46.324Z,6.60
2022-08-11T06:23:40.534Z,5.80
2022-08-11T06:28:34.718Z,5.27
2022-08-11T06:33:31.334Z,6.03
2022-08-11T06:38:29.471Z,6.20
2022-08-11T06:43:24.097Z,6.00
2022-08-11T06:48:17.900Z,5.90
2022-08-11T06:53:12.195Z,5.73
2022-08-11T06:58:23.558Z,5.80
2022-08-11T07:03:19.103Z,5.73
2022-08-11T07:08:46.959Z,5.43
2022-08-11T07:13:58.924Z,5.43
2022-08-11T07:19:09.229Z,5.67
2022-08-11T07:24:21.223Z,5.50
2022-08-11T07:29:30.433Z,5.10
2022-08-11T07:34:26.921Z,5.53
2022-08-11T07:39:21.911Z,5.50
2022-08-11T07:44:16.610Z,4.80
2022-08-11T07:49:29.334Z,4.87
2022-08-11T07:54:22.162Z,4.47
2022-08-11T08:00:03.838Z,4.30
2022-08-11T08:05:07.927Z,4.80
2022-08-11T08:10:17.902Z,4.77
2022-08-11T08:15:28.494Z,4.20
2022-08-11T08:20:24.586Z,4.30
2022-08-11T08:25:18.023Z,4.20
2022-08-11T08:30:28.436Z,3.93
2022-08-11T08:35:22.338Z,3.63
2022-08-11T08:40:16.493Z,3.40
2022-08-11T08:45:10.554Z,3.10
2022-08-11T08:50:05.581Z,3.43
2022-08-11T08:55:02.746Z,3.20
2022-08-11T08:59:55.800Z,2.80
2022-08-11T09:04:48.895Z,3.03
2022-08-11T09:09:43.242Z,3.20
2022-08-11T09:14:55.498Z,3.40
2022-08-11T09:19:56.788Z,3.67
2022-08-11T09:25:09.033Z,3.13
2022-08-11T09:30:02.933Z,3.77
2022-08-11T09:34:55.643Z,3.30
2022-08-11T09:40:05.545Z,3.03
2022-08-11T09:44:58.235Z,3.30
2022-08-11T09:49:59.778Z,3.10
2022-08-11T09:54:53.297Z,3.00
2022-08-11T09:59:46.027Z,2.80
2022-08-11T10:04:41.394Z,3.50
2022-08-11T10:09:42.398Z,3.83
2022-08-11T10:14:52.882Z,2.97
2022-08-11T10:19:48.835Z,2.97
2022-08-11T10:25:19.621Z,3.00
2022-08-11T10:30:30.360Z,3.10
2022-08-11T10:35:26.149Z,2.83
2022-08-11T10:40:22.229Z,3.30
2022-08-11T10:45:29.635Z,3.03
2022-08-11T10:50:39.853Z,2.90
2022-08-11T10:55:51.865Z,3.00
2022-08-11T11:00:45.865Z,3.00
2022-08-11T11:05:39.629Z,3.10
2022-08-11T11:10:53.748Z,3.10
2022-08-11T11:16:05.011Z,2.90
2022-08-11T11:20:59.783Z,2.80
2022-08-11T11:26:27.574Z,2.97
2022-08-11T11:31:29.126Z,3.07
2022-08-11T11:36:26.599Z,3.07
2022-08-11T11:41:27.892Z,3.00
2022-08-11T11:46:20.576Z,3.33
2022-08-11T11:51:14.658Z,3.10
2022-08-11T11:56:07.636Z,2.97
2022-08-11T12:01:20.021Z,3.00
2022-08-11T12:06:14.639Z,3.17
2022-08-11T12:11:25.476Z,2.90
2022-08-11T12:16:33.949Z,3.10
2022-08-11T12:21:30.433Z,3.03
2022-08-11T12:26:40.836Z,2.77
2022-08-11T12:31:33.872Z,2.77
2022-08-11T12:36:26.703Z,3.47
2022-08-11T12:41:39.635Z,3.00
2022-08-11T12:46:34.188Z,3.10
2022-08-11T12:52:11.048Z,3.13
2022-08-11T12:57:36.686Z,3.30
2022-08-11T13:02:48.501Z,2.83
2022-08-11T13:07:50.445Z,3.77
2022-08-11T13:12:51.032Z,3.20
2022-08-11T13:17:44.493Z,2.87
2022-08-11T13:22:38.013Z,2.77
2022-08-11T13:27:31.180Z,3.00
2022-08-11T13:32:26.310Z,3.20
2022-08-11T13:37:20.983Z,2.90
2022-08-11T13:42:33.549Z,3.00
2022-08-11T13:47:27.998Z,3.10
2022-08-11T13:52:21.334Z,2.90
2022-08-11T13:58:08.834Z,3.17
2022-08-11T14:02:32.940Z,3.00
2022-08-11T14:07:26.899Z,3.23
2022-08-11T14:12:41.848Z,3.03
2022-08-11T14:17:48.809Z,3.07
2022-08-11T14:22:42.626Z,3.20
2022-08-11T14:28:31.527Z,3.03
2022-08-11T14:32:55.374Z,2.80
2022-08-11T14:37:49.025Z,2.87
2022-08-11T14:42:58.822Z,3.23
2022-08-11T14:47:53.919Z,3.07
2022-08-11T14:52:49.809Z,2.97
2022-08-11T14:58:04.524Z,3.00
2022-08-11T15:03:13.540Z,3.10
2022-08-11T15:08:06.917Z,2.93
2022-08-11T15:12:59.691Z,2.83
2022-08-11T15:17:53.473Z,3.40
2022-08-11T15:23:04.503Z,3.30
2022-08-11T15:28:15.080Z,3.00
2022-08-11T15:33:26.202Z,3.00
2022-08-11T15:38:21.055Z,3.23
2022-08-11T15:43:34.420Z,3.43
2022-08-11T15:48:30.353Z,3.10
2022-08-11T15:53:27.917Z,3.13
2022-08-11T15:58:38.987Z,3.40
2022-08-11T16:04:06.502Z,3.00
2022-08-11T16:09:08.184Z,3.23
2022-08-11T16:14:30.087Z,3.20
2022-08-11T16:19:23.305Z,3.23
2022-08-11T16:27:03.989Z,3.30
2022-08-11T16:29:32.401Z,3.20
2022-08-11T16:34:38.961Z,3.33
2022-08-11T16:39:32.965Z,2.90
2022-08-11T16:44:44.106Z,3.00
2022-08-11T16:49:37.769Z,3.03
2022-08-11T16:54:30.733Z,3.07
2022-08-11T16:59:27.535Z,3.33
2022-08-11T17:04:46.913Z,3.10
2022-08-11T17:09:57.434Z,3.43
2022-08-11T17:14:52.957Z,3.30
2022-08-11T17:20:43.008Z,3.50
2022-08-11T17:25:01.120Z,3.33
2022-08-11T17:29:57.135Z,3.53
2022-08-11T17:35:08.418Z,3.33
2022-08-11T17:40:02.004Z,3.33
2022-08-11T17:45:14.018Z,3.53
2022-08-11T17:50:17.330Z,3.50
2022-08-11T17:55:51.534Z,3.37
2022-08-11T18:00:42.740Z,3.47
2022-08-11T18:05:36.726Z,3.40
2022-08-11T18:10:48.177Z,3.50
2022-08-11T18:16:01.416Z,3.53
2022-08-11T18:21:11.815Z,3.60
2022-08-11T18:26:22.844Z,3.43
2022-08-11T18:31:35.104Z,3.57
2022-08-11T18:36:48.020Z,3.67
2022-08-11T18:41:59.608Z,3.70
2022-08-11T18:47:11.814Z,3.47
2022-08-11T18:52:21.981Z,3.50
2022-08-11T18:57:32.462Z,3.60
2022-08-11T19:02:50.396Z,3.63
2022-08-11T19:08:01.832Z,3.50
2022-08-11T19:13:12.541Z,3.77
2022-08-11T19:18:24.349Z,3.60
2022-08-11T19:23:36.118Z,3.50
2022-08-11T19:28:46.704Z,3.67
2022-08-11T19:34:09.550Z,3.90
2022-08-11T19:39:20.894Z,3.70
2022-08-11T19:44:32.482Z,4.23
2022-08-11T19:49:44.121Z,4.00
2022-08-11T19:54:55.246Z,3.80
2022-08-11T20:00:05.452Z,3.97
2022-08-11T20:05:16.708Z,3.93
2022-08-11T20:10:27.777Z,3.83
2022-08-11T20:15:38.441Z,4.03
2022-08-11T20:20:50.436Z,4.20
2022-08-11T20:26:14.172Z,4.30
2022-08-11T20:31:31.480Z,3.73
2022-08-11T20:36:43.611Z,4.07
2022-08-11T20:41:59.218Z,4.07
2022-08-11T20:47:13.267Z,4.00
2022-08-11T20:52:25.912Z,4.60
2022-08-11T20:58:01.419Z,4.30
2022-08-11T21:03:06.701Z,4.50
2022-08-11T21:08:19.617Z,4.90
2022-08-11T21:13:36.997Z,4.63
2022-08-11T21:18:48.773Z,5.13
2022-08-11T21:24:00.292Z,4.40
2022-08-11T21:29:11.633Z,4.63
2022-08-11T21:34:22.946Z,4.30
2022-08-11T21:39:37.479Z,4.60
2022-08-11T21:44:47.592Z,4.67
2022-08-11T21:49:58.660Z,5.20
2022-08-11T21:55:11.608Z,4.50
2022-08-11T22:00:24.280Z,5.40
2022-08-11T22:05:34.965Z,4.80
2022-08-11T22:10:46.830Z,5.27
2022-08-11T22:15:57.304Z,5.13
2022-08-11T22:21:08.151Z,4.60
2022-08-11T22:26:20.312Z,5.00
2022-08-11T22:31:33.051Z,5.03
2022-08-11T22:36:43.808Z,4.93
2022-08-11T22:41:55.469Z,5.00
2022-08-11T22:47:05.657Z,4.70
2022-08-11T22:52:17.303Z,5.00
2022-08-11T22:57:28.597Z,4.93
2022-08-11T23:02:38.945Z,4.97
2022-08-11T23:07:50.428Z,5.00
2022-08-11T23:13:03.432Z,5.13
2022-08-11T23:18:13.545Z,4.97
2022-08-11T23:23:23.963Z,5.87
2022-08-11T23:28:35.479Z,4.30
2022-08-11T23:33:46.809Z,4.47
2022-08-11T23:38:57.175Z,4.90
2022-08-11T23:44:08.451Z,4.17
2022-08-11T23:49:20.446Z,4.33
2022-08-11T23:54:36.485Z,4.40
2022-08-11T23:59:48.803Z,4.83
